Time;durP1;ratioP1;P1;durP2;ratioP2;P2;SDS_P1;SDS_P2;PMS_P1;PMS_P2;Temp;Humidity;BMP_temperature;BMP_pressure;BME280_temperature;BME280_humidity;BME280_pressure;Samples;Min_cycle;Max_cycle;Signal;HPM_P1;HPM_P2
2024/04/07 00:02:18;;;;;;;28.98;18.75;;;;;;;;;;4989657;28;20037;-76
2024/04/07 00:04:44;;;;;;;29.92;19.38;;;;;;;;;;4988584;28;20053;-77
2024/04/07 00:07:10;;;;;;;27.27;18.00;;;;;;;;;;4989241;28;20125;-76
2024/04/07 00:09:37;;;;;;;28.92;18.25;;;;;;;;;;4989001;28;20415;-77
2024/04/07 00:12:09;;;;;;;29.40;19.42;;;;;;;;;;4989207;28;20038;-76
2024/04/07 00:14:38;;;;;;;33.33;19.42;;;;;;;;;;4986312;28;20057;-76
2024/04/07 00:17:05;;;;;;;33.88;20.38;;;;;;;;;;4988917;28;20030;-76
2024/04/07 00:19:32;;;;;;;33.25;19.58;;;;;;;;;;4987611;28;20030;-76
2024/04/07 00:21:58;;;;;;;33.22;18.23;;;;;;;;;;4987885;28;20129;-76
2024/04/07 00:24:23;;;;;;;35.60;20.80;;;;;;;;;;4986458;28;20481;-76
2024/04/07 00:26:50;;;;;;;28.77;17.73;;;;;;;;;;4988474;28;20458;-78
2024/04/07 00:29:16;;;;;;;29.20;19.25;;;;;;;;;;4986502;28;20518;-76
2024/04/07 00:31:42;;;;;;;29.73;18.55;;;;;;;;;;4990106;28;20034;-76
2024/04/07 00:34:08;;;;;;;30.80;18.50;;;;;;;;;;4986634;28;20047;-76
2024/04/07 00:36:33;;;;;;;34.92;19.65;;;;;;;;;;4988563;28;20046;-76
2024/04/07 00:38:59;;;;;;;25.98;17.67;;;;;;;;;;4986911;28;20125;-77
2024/04/07 00:41:27;;;;;;;27.13;15.43;;;;;;;;;;5003875;28;20046;-74
2024/04/07 00:43:53;;;;;;;28.70;18.40;;;;;;;;;;4987754;28;20133;-76
2024/04/07 00:46:19;;;;;;;34.83;19.17;;;;;;;;;;4988960;28;20125;-76
2024/04/07 00:48:44;;;;;;;27.98;18.70;;;;;;;;;;5003604;28;20422;-76
2024/04/07 00:51:10;;;;;;;32.42;21.33;;;;;;;;;;5003868;28;20086;-75
2024/04/07 00:53:36;;;;;;;40.33;17.02;;;;;;;;;;4987061;28;20077;-75
2024/04/07 00:56:02;;;;;;;34.35;21.50;;;;;;;;;;4988650;28;20506;-76
2024/04/07 00:58:29;;;;;;;29.90;20.02;;;;;;;;;;4988578;28;20082;-75
2024/04/07 01:00:55;;;;;;;18.23;12.07;;;;;;;;;;4987952;28;20187;-76
2024/04/07 01:03:20;;;;;;;13.70;11.82;;;;;;;;;;4988772;28;20038;-75
2024/04/07 01:05:47;;;;;;;21.20;14.52;;;;;;;;;;4985818;28;20081;-74
2024/04/07 01:08:13;;;;;;;28.60;17.17;;;;;;;;;;4971524;28;20038;-75
2024/04/07 01:10:39;;;;;;;30.05;19.23;;;;;;;;;;4985622;28;20057;-76
2024/04/07 01:13:06;;;;;;;31.75;18.77;;;;;;;;;;4988251;28;20050;-76
2024/04/07 01:15:34;;;;;;;26.10;16.85;;;;;;;;;;4988836;28;20047;-76
2024/04/07 01:18:00;;;;;;;27.13;15.48;;;;;;;;;;4988693;28;20411;-76
2024/04/07 01:20:27;;;;;;;33.47;18.40;;;;;;;;;;4987065;28;20031;-74
2024/04/07 01:22:53;;;;;;;25.77;16.42;;;;;;;;;;4984988;28;20041;-76
2024/04/07 01:25:20;;;;;;;21.13;15.23;;;;;;;;;;4988215;28;20034;-76
2024/04/07 01:27:46;;;;;;;20.60;15.38;;;;;;;;;;4971264;28;20042;-75
2024/04/07 01:30:12;;;;;;;21.48;11.73;;;;;;;;;;4986951;28;20182;-76
2024/04/07 01:32:38;;;;;;;26.83;17.27;;;;;;;;;;4986237;28;20102;-75
2024/04/07 01:35:04;;;;;;;16.83;11.50;;;;;;;;;;4972128;28;20034;-75
2024/04/07 01:37:30;;;;;;;29.23;17.92;;;;;;;;;;4988007;28;20042;-75
2024/04/07 01:40:01;;;;;;;15.77;12.95;;;;;;;;;;4990103;28;20407;-76
2024/04/07 01:42:27;;;;;;;22.95;15.93;;;;;;;;;;4991446;28;20346;-77
2024/04/07 01:44:53;;;;;;;30.15;18.83;;;;;;;;;;4989092;28;20030;-76
2024/04/07 01:47:19;;;;;;;32.10;18.80;;;;;;;;;;4992198;28;20042;-75
2024/04/07 01:49:44;;;;;;;21.92;14.90;;;;;;;;;;4992630;28;20034;-76
2024/04/07 01:52:10;;;;;;;24.02;15.20;;;;;;;;;;4990897;28;20044;-76
2024/04/07 01:54:36;;;;;;;28.90;19.70;;;;;;;;;;5005218;28;20069;-76
2024/04/07 01:57:02;;;;;;;28.23;18.63;;;;;;;;;;4991414;28;20557;-75
2024/04/07 01:59:28;;;;;;;34.65;19.70;;;;;;;;;;4991333;28;20036;-75
2024/04/07 02:01:54;;;;;;;28.88;20.05;;;;;;;;;;4992605;28;20061;-75
2024/04/07 02:04:20;;;;;;;31.90;20.30;;;;;;;;;;4990756;28;20518;-75
2024/04/07 02:06:46;;;;;;;29.30;19.73;;;;;;;;;;4991122;28;20041;-75
2024/04/07 02:09:11;;;;;;;33.45;20.85;;;;;;;;;;4990645;28;20034;-75
2024/04/07 02:11:37;;;;;;;31.85;20.15;;;;;;;;;;4990844;28;20042;-75
2024/04/07 02:14:03;;;;;;;32.97;20.63;;;;;;;;;;5005540;28;20050;-75
2024/04/07 02:16:29;;;;;;;35.47;19.63;;;;;;;;;;4991133;28;20034;-76
2024/04/07 02:18:55;;;;;;;28.80;19.02;;;;;;;;;;4991942;28;20058;-76
2024/04/07 02:21:21;;;;;;;33.22;20.95;;;;;;;;;;4992058;28;20077;-75
2024/04/07 02:24:07;;;;;;;31.52;20.38;;;;;;;;;;4988428;28;20392;-75
2024/04/07 02:26:33;;;;;;;32.75;22.65;;;;;;;;;;4992127;28;20053;-76
2024/04/07 02:28:59;;;;;;;34.30;21.08;;;;;;;;;;4991662;28;20022;-77
2024/04/07 02:31:25;;;;;;;27.30;18.55;;;;;;;;;;4989817;28;20042;-75
2024/04/07 02:33:51;;;;;;;28.73;19.00;;;;;;;;;;4989865;28;20152;-75
2024/04/07 02:36:17;;;;;;;30.67;21.40;;;;;;;;;;4990794;28;20066;-76
2024/04/07 02:38:43;;;;;;;33.22;21.35;;;;;;;;;;4989724;28;20565;-75
2024/04/07 02:41:09;;;;;;;41.05;23.00;;;;;;;;;;4991292;28;20054;-76
2024/04/07 02:43:34;;;;;;;35.13;21.83;;;;;;;;;;4972672;28;20396;-76
2024/04/07 02:48:45;;;;;;;34.65;21.60;;;;;;;;;;4983826;28;20026;-75
2024/04/07 02:51:11;;;;;;;35.50;20.63;;;;;;;;;;4990223;28;20586;-75
2024/04/07 02:53:37;;;;;;;31.33;19.27;;;;;;;;;;4989473;28;20089;-76
2024/04/07 02:56:03;;;;;;;32.08;20.23;;;;;;;;;;4989998;28;20495;-75
2024/04/07 02:58:29;;;;;;;33.17;21.33;;;;;;;;;;4990861;28;20130;-75
2024/04/07 03:01:03;;;;;;;30.45;19.60;;;;;;;;;;4991240;28;20046;-75
2024/04/07 03:03:30;;;;;;;29.83;19.65;;;;;;;;;;4990022;28;20107;-75
2024/04/07 03:05:56;;;;;;;32.20;20.23;;;;;;;;;;4989955;28;20042;-76
2024/04/07 03:08:22;;;;;;;38.03;22.65;;;;;;;;;;4990113;28;20069;-75
2024/04/07 03:10:57;;;;;;;31.55;20.30;;;;;;;;;;4991147;28;20046;-75
2024/04/07 03:13:23;;;;;;;30.95;18.48;;;;;;;;;;4989419;28;20046;-75
2024/04/07 03:15:49;;;;;;;29.40;19.88;;;;;;;;;;4989017;28;20542;-75
2024/04/07 03:18:15;;;;;;;29.63;20.08;;;;;;;;;;4990406;28;20042;-76
2024/04/07 03:20:40;;;;;;;34.83;20.10;;;;;;;;;;4990064;28;20030;-76
2024/04/07 03:23:07;;;;;;;30.02;19.77;;;;;;;;;;4988901;28;20038;-74
2024/04/07 03:25:32;;;;;;;30.05;20.27;;;;;;;;;;4989012;28;20053;-75
2024/04/07 03:27:58;;;;;;;31.48;20.80;;;;;;;;;;4985186;28;20030;-76
2024/04/07 03:30:24;;;;;;;30.52;18.83;;;;;;;;;;4985714;28;20046;-76
2024/04/07 03:32:50;;;;;;;34.25;18.50;;;;;;;;;;4986615;28;20043;-77
2024/04/07 03:35:16;;;;;;;28.88;19.27;;;;;;;;;;4972711;28;20037;-76
2024/04/07 03:37:41;;;;;;;32.80;21.08;;;;;;;;;;5006467;28;20045;-77
2024/04/07 03:40:08;;;;;;;24.38;17.75;;;;;;;;;;4989286;28;20128;-78
2024/04/07 03:42:34;;;;;;;31.20;21.00;;;;;;;;;;4989024;28;20125;-78
2024/04/07 03:45:01;;;;;;;31.45;18.80;;;;;;;;;;4988871;28;20134;-78
2024/04/07 03:47:29;;;;;;;26.42;18.42;;;;;;;;;;4990107;28;20045;-77
2024/04/07 03:49:55;;;;;;;27.83;20.13;;;;;;;;;;4990193;28;20045;-77
2024/04/07 03:52:20;;;;;;;29.75;20.20;;;;;;;;;;4991984;28;20049;-76
2024/04/07 03:54:48;;;;;;;27.13;19.70;;;;;;;;;;4989813;28;20128;-75
2024/04/07 03:57:14;;;;;;;30.60;20.48;;;;;;;;;;4991852;28;20042;-76
2024/04/07 03:59:40;;;;;;;30.55;17.60;;;;;;;;;;5008924;28;20041;-76
2024/04/07 04:02:06;;;;;;;13.38;10.73;;;;;;;;;;4995223;28;20049;-76
2024/04/07 04:04:32;;;;;;;21.65;15.45;;;;;;;;;;4997367;28;20050;-78
2024/04/07 04:06:58;;;;;;;24.65;18.85;;;;;;;;;;5001525;28;20045;-76
2024/04/07 04:09:23;;;;;;;28.13;16.58;;;;;;;;;;4995272;28;20026;-76
2024/04/07 04:11:52;;;;;;;25.77;17.50;;;;;;;;;;4990449;28;20034;-77
2024/04/07 04:14:18;;;;;;;26.27;18.63;;;;;;;;;;4987993;28;20426;-76
2024/04/07 04:16:45;;;;;;;29.48;19.33;;;;;;;;;;5003991;28;20031;-77
2024/04/07 04:19:11;;;;;;;26.60;18.75;;;;;;;;;;4989635;28;20027;-77
2024/04/07 04:21:37;;;;;;;24.85;15.85;;;;;;;;;;4989981;28;20089;-76
2024/04/07 04:24:03;;;;;;;25.90;18.80;;;;;;;;;;4987998;28;20042;-77
2024/04/07 04:26:29;;;;;;;27.95;19.85;;;;;;;;;;4988490;28;20046;-76
2024/04/07 04:28:54;;;;;;;27.42;19.35;;;;;;;;;;5003238;28;20117;-77
2024/04/07 04:31:20;;;;;;;27.15;19.92;;;;;;;;;;4987351;28;20042;-77
2024/04/07 04:33:47;;;;;;;26.90;19.50;;;;;;;;;;4986958;28;20122;-77
2024/04/07 04:36:13;;;;;;;24.23;19.15;;;;;;;;;;4987524;28;20046;-77
2024/04/07 04:38:39;;;;;;;28.70;19.23;;;;;;;;;;4988848;28;20031;-78
2024/04/07 04:41:05;;;;;;;30.30;22.33;;;;;;;;;;5003765;28;20462;-77
2024/04/07 04:43:31;;;;;;;30.35;21.10;;;;;;;;;;5003528;28;20038;-78
2024/04/07 04:46:04;;;;;;;32.47;20.08;;;;;;;;;;4988729;28;20033;-78
2024/04/07 04:48:33;;;;;;;34.90;21.67;;;;;;;;;;4986713;28;20037;-78
2024/04/07 04:50:59;;;;;;;31.00;22.50;;;;;;;;;;4988506;28;20074;-78
2024/04/07 04:53:25;;;;;;;34.97;23.27;;;;;;;;;;4986734;28;20530;-78
2024/04/07 04:55:51;;;;;;;35.67;22.42;;;;;;;;;;4982232;28;20117;-79
2024/04/07 04:58:17;;;;;;;34.10;20.85;;;;;;;;;;4987164;28;20030;-77
2024/04/07 05:00:42;;;;;;;34.28;22.08;;;;;;;;;;4988488;28;20041;-78
2024/04/07 05:03:08;;;;;;;31.67;20.67;;;;;;;;;;4979539;28;20050;-78
2024/04/07 05:05:34;;;;;;;32.92;20.77;;;;;;;;;;4984527;28;20117;-79
2024/04/07 05:08:00;;;;;;;32.63;21.17;;;;;;;;;;4989385;28;20057;-80
2024/04/07 05:10:26;;;;;;;29.58;19.73;;;;;;;;;;4988174;28;20046;-78
2024/04/07 05:12:52;;;;;;;30.70;20.40;;;;;;;;;;4990491;28;20034;-79
2024/04/07 05:15:18;;;;;;;29.42;19.23;;;;;;;;;;5006274;28;20418;-77
2024/04/07 05:17:46;;;;;;;32.55;21.20;;;;;;;;;;4991153;28;20510;-78
2024/04/07 05:20:14;;;;;;;36.45;20.30;;;;;;;;;;4991496;28;20034;-78
2024/04/07 05:22:40;;;;;;;37.42;22.45;;;;;;;;;;4989133;28;20037;-79
2024/04/07 05:25:06;;;;;;;31.98;21.50;;;;;;;;;;4991508;28;20093;-78
2024/04/07 05:27:32;;;;;;;34.70;20.65;;;;;;;;;;4987130;28;20035;-78
2024/04/07 05:29:58;;;;;;;31.10;20.02;;;;;;;;;;4990030;28;20120;-76
2024/04/07 05:32:24;;;;;;;37.72;22.20;;;;;;;;;;4991532;28;20573;-78
2024/04/07 05:34:49;;;;;;;29.40;21.70;;;;;;;;;;4989182;28;20062;-78
2024/04/07 05:37:16;;;;;;;29.88;20.83;;;;;;;;;;4992649;28;20038;-76
2024/04/07 05:39:47;;;;;;;32.55;21.38;;;;;;;;;;4990557;28;20121;-79
2024/04/07 05:42:12;;;;;;;;;;;;;;;;;;4992951;28;20053;-75
2024/04/07 05:44:39;;;;;;;31.98;21.92;;;;;;;;;;4986178;28;19921;-77
2024/04/07 05:47:04;;;;;;;28.02;20.02;;;;;;;;;;4986253;28;20038;-77
2024/04/07 05:49:34;;;;;;;34.10;21.70;;;;;;;;;;4996487;28;20473;-80
2024/04/07 05:51:59;;;;;;;28.08;20.63;;;;;;;;;;5000487;28;20124;-83
2024/04/07 05:54:29;;;;;;;30.95;20.10;;;;;;;;;;4993249;28;20046;-78
2024/04/07 05:56:54;;;;;;;28.30;20.05;;;;;;;;;;4990552;28;20104;-78
2024/04/07 05:59:20;;;;;;;29.55;21.10;;;;;;;;;;4990016;28;20502;-75
2024/04/07 06:01:46;;;;;;;27.55;19.40;;;;;;;;;;4989696;28;20053;-78
2024/04/07 06:04:12;;;;;;;33.22;20.33;;;;;;;;;;5008341;28;20113;-78
2024/04/07 06:06:38;;;;;;;33.60;22.42;;;;;;;;;;4988960;28;20030;-78
2024/04/07 06:09:04;;;;;;;33.50;22.52;;;;;;;;;;4989571;28;20034;-77
2024/04/07 06:11:30;;;;;;;28.10;19.92;;;;;;;;;;4990729;28;20443;-78
2024/04/07 06:13:56;;;;;;;33.75;22.02;;;;;;;;;;4982844;28;20081;-79
2024/04/07 06:16:21;;;;;;;31.40;21.08;;;;;;;;;;4984683;28;20070;-79
2024/04/07 06:18:47;;;;;;;33.85;21.55;;;;;;;;;;4982007;28;20518;-79
2024/04/07 06:21:14;;;;;;;35.42;22.42;;;;;;;;;;4988384;28;20034;-79
2024/04/07 06:23:42;;;;;;;34.22;21.60;;;;;;;;;;4990379;28;20137;-79
2024/04/07 06:26:08;;;;;;;36.05;22.08;;;;;;;;;;4990378;28;20030;-79
2024/04/07 06:28:34;;;;;;;38.28;21.35;;;;;;;;;;4992090;28;20458;-79
2024/04/07 06:31:01;;;;;;;35.95;20.65;;;;;;;;;;4992131;28;20451;-79
2024/04/07 06:33:27;;;;;;;34.45;19.88;;;;;;;;;;5005376;28;20058;-77
2024/04/07 06:35:53;;;;;;;28.52;20.15;;;;;;;;;;4975037;28;20038;-79
2024/04/07 06:38:19;;;;;;;32.63;20.08;;;;;;;;;;4990064;28;20511;-78
2024/04/07 06:40:45;;;;;;;30.63;20.77;;;;;;;;;;4991271;28;20092;-79
2024/04/07 06:43:10;;;;;;;32.42;21.10;;;;;;;;;;4990613;28;20415;-78
2024/04/07 06:45:36;;;;;;;21.88;14.93;;;;;;;;;;4991987;28;20030;-81
2024/04/07 06:48:02;;;;;;;32.92;21.17;;;;;;;;;;4990487;28;20030;-80
2024/04/07 06:50:28;;;;;;;31.13;21.25;;;;;;;;;;4989565;28;20527;-79
2024/04/07 06:52:54;;;;;;;30.48;19.52;;;;;;;;;;4987513;28;20189;-80
2024/04/07 06:55:20;;;;;;;29.17;20.80;;;;;;;;;;4991247;28;20031;-78
2024/04/07 06:57:46;;;;;;;26.92;19.70;;;;;;;;;;4990127;28;20038;-78
2024/04/07 07:00:12;;;;;;;37.47;22.65;;;;;;;;;;4990336;28;20042;-77
2024/04/07 07:02:38;;;;;;;34.97;21.00;;;;;;;;;;4981084;28;20037;-77
2024/04/07 07:05:04;;;;;;;30.25;19.10;;;;;;;;;;4989363;28;20211;-78
2024/04/07 07:07:30;;;;;;;27.67;19.50;;;;;;;;;;4990678;28;20442;-78
2024/04/07 07:09:57;;;;;;;30.23;20.58;;;;;;;;;;4990591;28;20141;-78
2024/04/07 07:12:23;;;;;;;29.33;20.52;;;;;;;;;;4989396;28;20117;-78
2024/04/07 07:14:49;;;;;;;30.30;20.30;;;;;;;;;;4987945;28;20141;-77
2024/04/07 07:17:15;;;;;;;32.05;21.27;;;;;;;;;;4989025;28;20038;-78
2024/04/07 07:19:41;;;;;;;31.90;20.65;;;;;;;;;;4988703;28;20173;-78
2024/04/07 07:22:07;;;;;;;32.78;19.73;;;;;;;;;;4990924;28;20037;-77
2024/04/07 07:24:32;;;;;;;28.35;21.02;;;;;;;;;;4988522;28;20410;-77
2024/04/07 07:26:58;;;;;;;27.25;20.30;;;;;;;;;;4989488;28;20258;-77
2024/04/07 07:29:24;;;;;;;29.75;20.92;;;;;;;;;;4990219;28;20061;-77
2024/04/07 07:31:50;;;;;;;29.33;21.60;;;;;;;;;;4990108;28;20419;-78
2024/04/07 07:34:16;;;;;;;27.73;19.40;;;;;;;;;;4988722;28;20034;-77
2024/04/07 07:36:41;;;;;;;30.10;19.98;;;;;;;;;;4992350;28;20038;-77
2024/04/07 07:39:07;;;;;;;32.83;20.13;;;;;;;;;;4989671;28;20038;-76
2024/04/07 07:41:33;;;;;;;29.45;19.88;;;;;;;;;;5004543;28;20042;-78
2024/04/07 07:43:59;;;;;;;28.75;19.58;;;;;;;;;;4987546;28;20042;-76
2024/04/07 07:46:25;;;;;;;26.00;18.70;;;;;;;;;;4989711;28;20037;-77
2024/04/07 07:51:35;;;;;;;25.75;18.77;;;;;;;;;;4989567;28;20078;-77
2024/04/07 07:54:01;;;;;;;30.42;19.60;;;;;;;;;;4987109;28;20066;-77
2024/04/07 07:56:27;;;;;;;25.73;19.65;;;;;;;;;;4988559;28;20498;-77
2024/04/07 07:58:53;;;;;;;33.38;19.10;;;;;;;;;;4989155;28;20022;-76
2024/04/07 08:01:19;;;;;;;32.10;19.73;;;;;;;;;;4988033;28;20431;-77
2024/04/07 08:03:45;;;;;;;28.25;19.77;;;;;;;;;;4982621;28;20125;-77
2024/04/07 08:06:11;;;;;;;28.45;18.50;;;;;;;;;;4988942;28;20457;-77
2024/04/07 08:08:37;;;;;;;27.23;19.02;;;;;;;;;;4985900;28;20609;-77
2024/04/07 08:11:03;;;;;;;28.95;16.65;;;;;;;;;;4988973;28;20510;-77
2024/04/07 08:13:28;;;;;;;32.45;21.05;;;;;;;;;;5003391;28;20054;-76
2024/04/07 08:15:54;;;;;;;31.90;19.27;;;;;;;;;;4991271;28;20121;-76
2024/04/07 08:18:20;;;;;;;27.50;18.20;;;;;;;;;;4991484;28;20038;-77
2024/04/07 08:20:46;;;;;;;25.13;18.10;;;;;;;;;;5009556;28;20030;-74
2024/04/07 08:23:12;;;;;;;26.10;18.02;;;;;;;;;;4992960;28;20045;-74
2024/04/07 08:25:38;;;;;;;25.17;17.17;;;;;;;;;;4994534;28;20030;-75
2024/04/07 08:28:04;;;;;;;27.65;19.05;;;;;;;;;;4990673;28;20498;-76
2024/04/07 08:30:30;;;;;;;21.25;15.60;;;;;;;;;;4986987;28;20046;-74
2024/04/07 08:32:56;;;;;;;34.10;19.25;;;;;;;;;;4989005;28;20858;-74
2024/04/07 08:35:22;;;;;;;30.25;20.27;;;;;;;;;;4987581;28;20096;-75
2024/04/07 08:37:48;;;;;;;24.50;18.65;;;;;;;;;;4989381;28;20038;-72
2024/04/07 08:40:14;;;;;;;28.08;18.52;;;;;;;;;;5003848;28;20045;-73
2024/04/07 08:42:40;;;;;;;29.92;21.38;;;;;;;;;;4987763;28;20125;-73
2024/04/07 08:45:06;;;;;;;27.75;18.63;;;;;;;;;;4988835;28;20034;-73
2024/04/07 08:47:33;;;;;;;28.52;19.33;;;;;;;;;;4992531;28;20156;-74
2024/04/07 08:49:59;;;;;;;32.80;17.63;;;;;;;;;;4989205;28;20066;-74
2024/04/07 08:52:25;;;;;;;30.00;18.90;;;;;;;;;;4987745;28;20182;-73
2024/04/07 08:54:51;;;;;;;30.52;18.38;;;;;;;;;;4991675;28;20097;-74
2024/04/07 08:57:17;;;;;;;26.30;18.20;;;;;;;;;;5008399;28;20074;-73
2024/04/07 08:59:45;;;;;;;31.95;17.38;;;;;;;;;;4993391;28;20122;-75
2024/04/07 09:02:11;;;;;;;24.58;18.40;;;;;;;;;;4972591;28;20039;-74
2024/04/07 09:04:37;;;;;;;24.42;17.33;;;;;;;;;;4973850;28;20057;-73
2024/04/07 09:07:03;;;;;;;23.83;17.63;;;;;;;;;;4974756;28;20046;-73
2024/04/07 09:09:32;;;;;;;22.38;15.75;;;;;;;;;;4990971;28;20217;-74
2024/04/07 09:12:01;;;;;;;21.38;15.15;;;;;;;;;;4993259;28;20137;-74
2024/04/07 09:14:27;;;;;;;23.67;15.93;;;;;;;;;;4972986;28;20172;-74
2024/04/07 09:17:03;;;;;;;24.27;16.40;;;;;;;;;;4992171;28;20034;-73
2024/04/07 09:19:33;;;;;;;18.15;14.80;;;;;;;;;;4990627;28;20034;-74
2024/04/07 09:21:59;;;;;;;19.92;14.50;;;;;;;;;;4990985;28;20034;-74
2024/04/07 09:24:25;;;;;;;18.83;15.02;;;;;;;;;;4990115;28;20050;-74
2024/04/07 09:26:52;;;;;;;23.77;15.88;;;;;;;;;;4990412;28;20030;-74
2024/04/07 09:29:17;;;;;;;22.00;15.60;;;;;;;;;;4973025;28;20380;-73
2024/04/07 09:31:43;;;;;;;17.48;14.73;;;;;;;;;;4991692;28;20041;-74
2024/04/07 09:34:10;;;;;;;19.95;14.90;;;;;;;;;;4988854;28;20051;-74
2024/04/07 09:36:36;;;;;;;18.42;13.93;;;;;;;;;;4990287;28;20117;-75
2024/04/07 09:39:03;;;;;;;21.88;14.90;;;;;;;;;;4991693;28;20116;-74
2024/04/07 09:41:30;;;;;;;16.95;15.15;;;;;;;;;;4991920;28;20124;-74
2024/04/07 09:43:55;;;;;;;23.45;14.10;;;;;;;;;;4990847;28;20522;-74
2024/04/07 09:46:21;;;;;;;19.10;13.98;;;;;;;;;;4991031;28;20046;-74
2024/04/07 09:48:53;;;;;;;18.58;14.23;;;;;;;;;;4986873;28;20033;-73
2024/04/07 09:51:22;;;;;;;18.55;13.73;;;;;;;;;;4971132;28;20054;-73
2024/04/07 09:53:48;;;;;;;22.15;14.85;;;;;;;;;;4991176;28;20042;-72
2024/04/07 09:56:14;;;;;;;17.88;14.02;;;;;;;;;;4973681;28;20038;-73
2024/04/07 09:58:40;;;;;;;19.33;14.55;;;;;;;;;;4990158;28;20145;-74
2024/04/07 10:01:06;;;;;;;15.70;12.68;;;;;;;;;;4974480;28;20042;-73
2024/04/07 10:03:35;;;;;;;20.23;13.23;;;;;;;;;;4989178;28;20050;-73
2024/04/07 10:06:01;;;;;;;17.73;12.73;;;;;;;;;;4991351;28;20502;-74
2024/04/07 10:08:27;;;;;;;19.83;13.20;;;;;;;;;;4991118;28;20085;-73
2024/04/07 10:10:53;;;;;;;22.92;12.85;;;;;;;;;;4991491;28;20475;-74
2024/04/07 10:13:22;;;;;;;15.32;12.13;;;;;;;;;;4990503;28;20050;-74
2024/04/07 10:15:48;;;;;;;16.05;14.48;;;;;;;;;;4989198;28;20545;-74
2024/04/07 10:18:20;;;;;;;15.38;11.82;;;;;;;;;;4986272;28;20518;-74
2024/04/07 10:20:55;;;;;;;17.08;11.85;;;;;;;;;;4991243;28;20034;-74
2024/04/07 10:23:28;;;;;;;12.88;11.63;;;;;;;;;;4989611;28;20538;-74
2024/04/07 10:25:59;;;;;;;12.13;10.70;;;;;;;;;;4987314;28;20105;-73
2024/04/07 10:28:25;;;;;;;15.75;11.40;;;;;;;;;;4987394;28;20049;-74
2024/04/07 10:31:00;;;;;;;21.58;12.05;;;;;;;;;;4992604;28;20046;-73
2024/04/07 10:33:29;;;;;;;29.33;13.75;;;;;;;;;;4992631;28;20093;-74
2024/04/07 10:35:58;;;;;;;13.63;12.35;;;;;;;;;;4996587;28;20093;-74
2024/04/07 10:38:24;;;;;;;28.20;13.55;;;;;;;;;;4997722;28;20046;-73
2024/04/07 10:40:56;;;;;;;13.73;12.32;;;;;;;;;;4978841;28;20037;-73
2024/04/07 10:43:23;;;;;;;13.70;11.32;;;;;;;;;;5006970;28;20042;-73
2024/04/07 10:45:49;;;;;;;20.45;11.85;;;;;;;;;;4991404;28;20034;-73
2024/04/07 10:48:15;;;;;;;18.88;11.07;;;;;;;;;;4989396;28;20628;-74
2024/04/07 10:50:41;;;;;;;11.77;10.57;;;;;;;;;;4991498;28;20038;-74
2024/04/07 10:53:12;;;;;;;12.00;9.15;;;;;;;;;;4989323;28;20049;-73
2024/04/07 10:55:38;;;;;;;7.95;7.15;;;;;;;;;;4991162;28;20052;-74
2024/04/07 10:58:04;;;;;;;12.50;8.68;;;;;;;;;;4989394;28;20085;-73
2024/04/07 11:00:30;;;;;;;11.00;9.30;;;;;;;;;;4989481;28;20042;-73
2024/04/07 11:02:56;;;;;;;6.45;5.38;;;;;;;;;;4989789;28;20494;-74
2024/04/07 11:05:21;;;;;;;5.45;4.95;;;;;;;;;;4989156;28;20030;-73
2024/04/07 11:07:47;;;;;;;5.68;4.95;;;;;;;;;;4990478;28;20038;-73
2024/04/07 11:10:15;;;;;;;10.15;6.93;;;;;;;;;;4988582;28;20418;-74
2024/04/07 11:12:43;;;;;;;5.90;5.40;;;;;;;;;;4990716;28;20117;-72
2024/04/07 11:15:19;;;;;;;5.13;4.70;;;;;;;;;;4988790;28;20577;-73
2024/04/07 11:17:45;;;;;;;7.88;5.00;;;;;;;;;;4963086;28;20038;-73
2024/04/07 11:20:12;;;;;;;6.35;5.25;;;;;;;;;;4985983;28;20030;-74
2024/04/07 11:22:40;;;;;;;6.43;4.95;;;;;;;;;;4987778;28;20041;-73
2024/04/07 11:25:06;;;;;;;10.32;5.40;;;;;;;;;;4989716;28;20058;-74
2024/04/07 11:27:33;;;;;;;7.15;5.05;;;;;;;;;;4990733;28;20043;-73
2024/04/07 11:30:01;;;;;;;6.13;5.15;;;;;;;;;;4988620;28;20137;-74
2024/04/07 11:32:31;;;;;;;4.70;4.22;;;;;;;;;;4988717;28;20089;-74
2024/04/07 11:34:59;;;;;;;4.70;3.90;;;;;;;;;;4987183;28;20507;-74
2024/04/07 11:37:25;;;;;;;11.93;4.15;;;;;;;;;;4990148;28;20604;-73
2024/04/07 11:39:52;;;;;;;6.75;3.00;;;;;;;;;;4992737;28;20034;-74
2024/04/07 11:42:18;;;;;;;3.70;2.70;;;;;;;;;;4988114;28;20049;-74
2024/04/07 11:44:44;;;;;;;2.80;2.60;;;;;;;;;;5003994;28;20046;-74
2024/04/07 11:47:10;;;;;;;3.10;2.75;;;;;;;;;;4989185;28;20386;-74
2024/04/07 11:49:36;;;;;;;4.93;3.38;;;;;;;;;;4987927;28;20089;-73
2024/04/07 11:52:02;;;;;;;3.60;3.30;;;;;;;;;;4973322;28;20034;-73
2024/04/07 11:54:28;;;;;;;4.13;3.40;;;;;;;;;;4985740;28;20506;-73
2024/04/07 11:56:53;;;;;;;4.22;3.30;;;;;;;;;;4988675;28;20096;-73
2024/04/07 11:59:19;;;;;;;3.08;2.88;;;;;;;;;;4987903;28;20050;-74
2024/04/07 12:01:45;;;;;;;5.18;3.60;;;;;;;;;;4989298;28;20503;-74
2024/04/07 12:04:11;;;;;;;4.07;3.67;;;;;;;;;;4985749;28;20122;-73
2024/04/07 12:06:37;;;;;;;5.50;3.95;;;;;;;;;;4985253;28;20065;-73
2024/04/07 12:09:07;;;;;;;4.93;3.70;;;;;;;;;;4986414;28;20030;-74
2024/04/07 12:11:33;;;;;;;4.72;3.83;;;;;;;;;;4986946;28;20038;-73
2024/04/07 12:13:59;;;;;;;3.85;3.55;;;;;;;;;;4971714;28;20550;-74
2024/04/07 12:16:25;;;;;;;7.78;3.83;;;;;;;;;;4987622;28;20049;-74
2024/04/07 12:18:51;;;;;;;5.55;4.10;;;;;;;;;;4988003;28;20407;-74
2024/04/07 12:21:17;;;;;;;6.13;4.20;;;;;;;;;;4970841;28;20048;-74
2024/04/07 12:23:44;;;;;;;8.98;3.08;;;;;;;;;;5003427;28;20050;-73
2024/04/07 12:26:10;;;;;;;9.18;4.47;;;;;;;;;;4972805;28;20034;-73
2024/04/07 12:28:36;;;;;;;3.72;3.30;;;;;;;;;;4990324;28;20113;-74
2024/04/07 12:31:02;;;;;;;7.28;3.53;;;;;;;;;;4969038;28;20503;-74
2024/04/07 12:33:28;;;;;;;8.60;4.22;;;;;;;;;;4984316;28;20664;-73
2024/04/07 12:35:54;;;;;;;8.00;4.35;;;;;;;;;;4989229;28;20034;-73
2024/04/07 12:38:20;;;;;;;3.72;3.30;;;;;;;;;;4988687;28;20410;-74
2024/04/07 12:40:46;;;;;;;9.25;3.90;;;;;;;;;;4990219;28;20049;-74
2024/04/07 12:43:12;;;;;;;4.72;3.08;;;;;;;;;;5003251;28;20069;-73
2024/04/07 12:45:38;;;;;;;4.30;3.78;;;;;;;;;;4972761;28;20041;-74
2024/04/07 12:48:17;;;;;;;5.15;3.70;;;;;;;;;;4988127;28;20023;-74
2024/04/07 12:50:43;;;;;;;4.93;3.95;;;;;;;;;;4978953;28;20109;-73
2024/04/07 12:53:09;;;;;;;4.53;3.33;;;;;;;;;;5003504;28;20511;-73
2024/04/07 12:55:35;;;;;;;3.90;3.60;;;;;;;;;;4987992;28;20045;-73
2024/04/07 12:58:01;;;;;;;5.47;3.80;;;;;;;;;;4986282;28;20022;-74
2024/04/07 13:00:27;;;;;;;5.57;3.80;;;;;;;;;;4988434;28;20096;-74
2024/04/07 13:02:54;;;;;;;4.45;3.58;;;;;;;;;;4986358;28;20041;-74
2024/04/07 13:05:22;;;;;;;3.85;3.53;;;;;;;;;;4971426;28;20084;-74
2024/04/07 13:07:48;;;;;;;9.98;4.68;;;;;;;;;;4971269;28;20442;-74
2024/04/07 13:10:13;;;;;;;4.93;3.35;;;;;;;;;;4987072;28;20108;-74
2024/04/07 13:12:39;;;;;;;3.80;3.50;;;;;;;;;;4987679;28;20113;-73
2024/04/07 13:15:05;;;;;;;5.03;3.50;;;;;;;;;;4988333;28;20511;-74
2024/04/07 13:17:31;;;;;;;5.95;3.70;;;;;;;;;;4986920;28;20617;-73
2024/04/07 13:19:57;;;;;;;6.20;4.25;;;;;;;;;;4988845;28;20688;-73
2024/04/07 13:22:23;;;;;;;5.05;3.60;;;;;;;;;;4986988;28;20042;-74
2024/04/07 13:24:49;;;;;;;5.32;4.70;;;;;;;;;;4988659;28;20054;-73
2024/04/07 13:27:15;;;;;;;7.28;4.63;;;;;;;;;;4988076;28;20430;-74
2024/04/07 13:29:41;;;;;;;4.28;3.83;;;;;;;;;;4988404;28;20526;-75
2024/04/07 13:32:09;;;;;;;5.45;4.55;;;;;;;;;;4988749;28;20131;-74
2024/04/07 13:34:35;;;;;;;8.25;4.65;;;;;;;;;;4980985;28;20653;-74
2024/04/07 13:37:02;;;;;;;4.45;4.05;;;;;;;;;;5008098;28;20124;-74
2024/04/07 13:39:28;;;;;;;4.18;3.80;;;;;;;;;;4991604;28;20041;-74
2024/04/07 13:41:54;;;;;;;5.57;3.42;;;;;;;;;;4989744;28;20034;-73
2024/04/07 13:44:20;;;;;;;3.47;3.20;;;;;;;;;;4988946;28;20049;-74
2024/04/07 13:46:49;;;;;;;5.53;4.18;;;;;;;;;;4990602;28;20557;-73
2024/04/07 13:49:16;;;;;;;5.82;3.70;;;;;;;;;;4990751;28;20042;-74
2024/04/07 13:51:41;;;;;;;5.57;3.90;;;;;;;;;;4992800;28;20042;-74
2024/04/07 13:54:07;;;;;;;5.63;4.18;;;;;;;;;;4990996;28;20129;-74
2024/04/07 13:56:33;;;;;;;7.40;4.20;;;;;;;;;;5005880;28;20506;-73
2024/04/07 13:58:59;;;;;;;4.47;4.07;;;;;;;;;;4990507;28;20498;-73
2024/04/07 14:01:25;;;;;;;4.40;3.60;;;;;;;;;;4990765;28;20124;-73
2024/04/07 14:03:51;;;;;;;5.47;3.97;;;;;;;;;;5006684;28;20046;-74
2024/04/07 14:06:17;;;;;;;4.50;4.10;;;;;;;;;;4974282;28;20145;-74
2024/04/07 14:08:43;;;;;;;9.95;3.67;;;;;;;;;;4991986;28;20108;-73
2024/04/07 14:11:09;;;;;;;5.30;4.20;;;;;;;;;;4991904;28;20146;-72
2024/04/07 14:13:35;;;;;;;3.45;3.25;;;;;;;;;;4981993;28;20353;-75
2024/04/07 14:16:02;;;;;;;4.82;4.43;;;;;;;;;;4995958;28;20117;-74
2024/04/07 14:18:28;;;;;;;5.38;4.10;;;;;;;;;;4996674;28;20562;-73
2024/04/07 14:20:54;;;;;;;5.68;4.22;;;;;;;;;;4996888;28;20117;-74
2024/04/07 14:23:20;;;;;;;3.80;3.50;;;;;;;;;;4991701;28;20530;-73
2024/04/07 14:25:46;;;;;;;4.90;4.00;;;;;;;;;;5006294;28;20038;-74